sensor_id;sensor_type;location;lat;lon;timestamp;pressure;altitude;pressure_sealevel;temperature;humidity
21988;BME280;11158;53.404;-1.510;2023-09-19T00:01:57;99197.31;;;16.10;49.42
21988;BME280;11158;53.404;-1.510;2023-09-19T00:04:42;99209.22;;;15.25;51.48
21988;BME280;11158;53.404;-1.510;2023-09-19T00:07:26;99206.63;;;15.47;51.48
21988;BME280;11158;53.404;-1.510;2023-09-19T00:10:12;99203.31;;;15.62;50.99
21988;BME280;11158;53.404;-1.510;2023-09-19T00:12:57;99195.34;;;15.84;50.51
21988;BME280;11158;53.404;-1.510;2023-09-19T00:15:45;99186.56;;;15.72;50.70
21988;BME280;11158;53.404;-1.510;2023-09-19T00:18:32;99183.56;;;15.90;50.61
21988;BME280;11158;53.404;-1.510;2023-09-19T00:21:19;99181.28;;;15.82;50.64
21988;BME280;11158;53.404;-1.510;2023-09-19T00:24:06;99172.59;;;15.41;52.33
21988;BME280;11158;53.404;-1.510;2023-09-19T00:26:50;99166.88;;;15.03;53.13
21988;BME280;11158;53.404;-1.510;2023-09-19T00:29:34;99157.66;;;15.16;52.62
21988;BME280;11158;53.404;-1.510;2023-09-19T00:32:18;99144.44;;;15.32;52.56
21988;BME280;11158;53.404;-1.510;2023-09-19T00:35:02;99136.19;;;14.87;54.22
21988;BME280;11158;53.404;-1.510;2023-09-19T00:37:47;99140.75;;;15.21;53.11
21988;BME280;11158;53.404;-1.510;2023-09-19T00:40:31;99140.63;;;15.11;53.06
21988;BME280;11158;53.404;-1.510;2023-09-19T00:43:17;99152.41;;;15.43;52.51
21988;BME280;11158;53.404;-1.510;2023-09-19T00:46:01;99147.84;;;14.76;54.19
21988;BME280;11158;53.404;-1.510;2023-09-19T00:48:47;99141.50;;;14.82;54.15
21988;BME280;11158;53.404;-1.510;2023-09-19T00:51:31;99140.63;;;14.94;53.97
21988;BME280;11158;53.404;-1.510;2023-09-19T00:54:16;99139.28;;;14.51;55.50
21988;BME280;11158;53.404;-1.510;2023-09-19T00:57:02;99154.78;;;14.89;54.71
21988;BME280;11158;53.404;-1.510;2023-09-19T00:59:49;99174.88;;;14.29;56.27
21988;BME280;11158;53.404;-1.510;2023-09-19T01:02:37;99163.84;;;14.42;55.76
21988;BME280;11158;53.404;-1.510;2023-09-19T01:05:21;99173.13;;;14.35;56.35
21988;BME280;11158;53.404;-1.510;2023-09-19T01:08:05;99180.97;;;15.27;54.07
21988;BME280;11158;53.404;-1.510;2023-09-19T01:10:59;99178.06;;;15.29;53.94
21988;BME280;11158;53.404;-1.510;2023-09-19T01:16:45;99154.25;;;14.46;55.58
21988;BME280;11158;53.404;-1.510;2023-09-19T01:19:51;99160.41;;;14.87;55.04
21988;BME280;11158;53.404;-1.510;2023-09-19T01:23:11;99157.94;;;14.69;54.85
21988;BME280;11158;53.404;-1.510;2023-09-19T01:31:59;99164.25;;;15.59;52.58
21988;BME280;11158;53.404;-1.510;2023-09-19T01:37:34;99169.22;;;15.50;52.81
21988;BME280;11158;53.404;-1.510;2023-09-19T01:40:20;99167.38;;;15.51;52.84
21988;BME280;11158;53.404;-1.510;2023-09-19T01:43:19;99167.50;;;15.61;52.45
21988;BME280;11158;53.404;-1.510;2023-09-19T01:46:30;99171.53;;;15.25;53.57
21988;BME280;11158;53.404;-1.510;2023-09-19T01:49:36;99161.38;;;15.66;52.24
21988;BME280;11158;53.404;-1.510;2023-09-19T01:52:28;99157.63;;;15.50;52.66
21988;BME280;11158;53.404;-1.510;2023-09-19T01:55:15;99163.03;;;15.16;53.30
21988;BME280;11158;53.404;-1.510;2023-09-19T01:58:07;99159.13;;;15.41;52.84
21988;BME280;11158;53.404;-1.510;2023-09-19T02:00:53;99164.69;;;15.00;53.56
21988;BME280;11158;53.404;-1.510;2023-09-19T02:03:39;99169.22;;;14.83;54.52
21988;BME280;11158;53.404;-1.510;2023-09-19T02:06:24;99159.09;;;14.90;53.95
21988;BME280;11158;53.404;-1.510;2023-09-19T02:09:09;99169.81;;;15.19;53.41
21988;BME280;11158;53.404;-1.510;2023-09-19T02:11:53;99159.22;;;15.12;53.66
21988;BME280;11158;53.404;-1.510;2023-09-19T02:14:39;99150.31;;;15.45;52.81
21988;BME280;11158;53.404;-1.510;2023-09-19T02:17:23;99143.28;;;15.27;53.49
21988;BME280;11158;53.404;-1.510;2023-09-19T02:20:11;99142.69;;;15.59;52.54
21988;BME280;11158;53.404;-1.510;2023-09-19T02:22:58;99137.09;;;15.44;53.18
21988;BME280;11158;53.404;-1.510;2023-09-19T02:25:51;99133.94;;;15.69;52.37
21988;BME280;11158;53.404;-1.510;2023-09-19T02:28:35;99130.38;;;15.63;52.41
21988;BME280;11158;53.404;-1.510;2023-09-19T02:31:19;99139.50;;;15.79;52.41
21988;BME280;11158;53.404;-1.510;2023-09-19T02:34:04;99117.75;;;15.47;52.69
21988;BME280;11158;53.404;-1.510;2023-09-19T02:36:50;99128.09;;;15.55;53.17
21988;BME280;11158;53.404;-1.510;2023-09-19T02:39:36;99121.78;;;15.66;52.59
21988;BME280;11158;53.404;-1.510;2023-09-19T02:42:21;99122.59;;;15.28;53.79
21988;BME280;11158;53.404;-1.510;2023-09-19T02:45:06;99122.66;;;15.33;53.70
21988;BME280;11158;53.404;-1.510;2023-09-19T02:47:51;99116.63;;;15.82;52.58
21988;BME280;11158;53.404;-1.510;2023-09-19T02:50:35;99095.94;;;16.09;51.99
21988;BME280;11158;53.404;-1.510;2023-09-19T02:53:20;99112.69;;;15.89;52.17
21988;BME280;11158;53.404;-1.510;2023-09-19T02:56:04;99106.00;;;16.41;51.07
21988;BME280;11158;53.404;-1.510;2023-09-19T02:58:48;99113.47;;;16.34;51.15
21988;BME280;11158;53.404;-1.510;2023-09-19T03:01:32;99107.44;;;16.22;51.11
21988;BME280;11158;53.404;-1.510;2023-09-19T03:04:17;99108.81;;;16.24;50.88
21988;BME280;11158;53.404;-1.510;2023-09-19T03:07:03;99116.34;;;16.49;50.68
21988;BME280;11158;53.404;-1.510;2023-09-19T03:09:48;99105.75;;;16.43;50.80
21988;BME280;11158;53.404;-1.510;2023-09-19T03:12:33;99106.34;;;16.23;51.10
21988;BME280;11158;53.404;-1.510;2023-09-19T03:15:17;99115.22;;;16.72;49.64
21988;BME280;11158;53.404;-1.510;2023-09-19T03:18:02;99116.03;;;16.73;49.85
21988;BME280;11158;53.404;-1.510;2023-09-19T03:20:54;99118.44;;;17.02;48.90
21988;BME280;11158;53.404;-1.510;2023-09-19T03:23:38;99118.03;;;17.15;48.96
21988;BME280;11158;53.404;-1.510;2023-09-19T03:26:22;99101.16;;;17.35;48.01
21988;BME280;11158;53.404;-1.510;2023-09-19T03:29:06;99086.16;;;17.12;49.13
21988;BME280;11158;53.404;-1.510;2023-09-19T03:31:50;99080.91;;;16.95;49.37
21988;BME280;11158;53.404;-1.510;2023-09-19T03:34:36;99074.47;;;17.01;49.36
21988;BME280;11158;53.404;-1.510;2023-09-19T03:37:24;99071.22;;;16.72;50.29
21988;BME280;11158;53.404;-1.510;2023-09-19T03:40:10;99064.31;;;16.81;50.95
21988;BME280;11158;53.404;-1.510;2023-09-19T03:42:54;99067.34;;;16.63;51.89
21988;BME280;11158;53.404;-1.510;2023-09-19T03:45:38;99072.53;;;16.96;51.14
21988;BME280;11158;53.404;-1.510;2023-09-19T03:48:24;99071.94;;;16.89;51.65
21988;BME280;11158;53.404;-1.510;2023-09-19T03:51:08;99063.25;;;16.82;52.10
21988;BME280;11158;53.404;-1.510;2023-09-19T03:53:52;99057.47;;;17.01;51.94
21988;BME280;11158;53.404;-1.510;2023-09-19T03:56:36;99061.72;;;16.64;52.69
21988;BME280;11158;53.404;-1.510;2023-09-19T03:59:20;99061.19;;;16.67;53.08
21988;BME280;11158;53.404;-1.510;2023-09-19T04:02:04;99064.34;;;16.27;54.26
21988;BME280;11158;53.404;-1.510;2023-09-19T04:04:49;99056.53;;;16.03;54.79
21988;BME280;11158;53.404;-1.510;2023-09-19T04:07:33;99055.66;;;15.76;55.66
21988;BME280;11158;53.404;-1.510;2023-09-19T04:10:18;99039.88;;;15.62;55.73
21988;BME280;11158;53.404;-1.510;2023-09-19T04:13:02;99029.19;;;15.50;55.45
21988;BME280;11158;53.404;-1.510;2023-09-19T04:15:47;99028.03;;;15.24;56.13
21988;BME280;11158;53.404;-1.510;2023-09-19T04:18:32;99046.91;;;14.91;56.91
21988;BME280;11158;53.404;-1.510;2023-09-19T04:21:17;99045.47;;;15.39;55.96
21988;BME280;11158;53.404;-1.510;2023-09-19T04:24:02;99048.50;;;15.25;56.30
21988;BME280;11158;53.404;-1.510;2023-09-19T04:26:46;99049.34;;;15.09;56.96
21988;BME280;11158;53.404;-1.510;2023-09-19T04:29:31;99039.91;;;15.45;56.01
21988;BME280;11158;53.404;-1.510;2023-09-19T04:32:15;99036.13;;;15.24;55.99
21988;BME280;11158;53.404;-1.510;2023-09-19T04:35:01;99024.88;;;15.11;56.54
21988;BME280;11158;53.404;-1.510;2023-09-19T04:37:47;99022.25;;;15.33;56.00
21988;BME280;11158;53.404;-1.510;2023-09-19T04:40:32;99011.47;;;15.33;55.63
21988;BME280;11158;53.404;-1.510;2023-09-19T04:43:18;98999.97;;;15.81;54.79
21988;BME280;11158;53.404;-1.510;2023-09-19T04:46:02;98986.31;;;15.88;54.72
21988;BME280;11158;53.404;-1.510;2023-09-19T04:48:47;98976.44;;;16.26;53.92
21988;BME280;11158;53.404;-1.510;2023-09-19T04:51:31;98982.31;;;16.50;53.22
21988;BME280;11158;53.404;-1.510;2023-09-19T04:54:18;98962.88;;;16.48;53.87
21988;BME280;11158;53.404;-1.510;2023-09-19T04:57:02;98957.31;;;16.27;54.60
21988;BME280;11158;53.404;-1.510;2023-09-19T04:59:46;98958.25;;;15.84;56.21
21988;BME280;11158;53.404;-1.510;2023-09-19T05:02:30;98941.81;;;15.63;57.59
21988;BME280;11158;53.404;-1.510;2023-09-19T05:05:15;98929.72;;;15.88;57.13
21988;BME280;11158;53.404;-1.510;2023-09-19T05:08:00;98915.47;;;15.43;58.88
21988;BME280;11158;53.404;-1.510;2023-09-19T05:10:45;98906.53;;;15.38;59.97
21988;BME280;11158;53.404;-1.510;2023-09-19T05:13:29;98904.97;;;15.42;60.01
21988;BME280;11158;53.404;-1.510;2023-09-19T05:16:14;98896.34;;;15.67;59.39
21988;BME280;11158;53.404;-1.510;2023-09-19T05:18:58;98893.13;;;15.43;60.37
21988;BME280;11158;53.404;-1.510;2023-09-19T05:21:43;98890.84;;;15.79;59.73
21988;BME280;11158;53.404;-1.510;2023-09-19T05:24:27;98878.63;;;15.22;61.75
21988;BME280;11158;53.404;-1.510;2023-09-19T05:27:12;98867.06;;;15.21;61.92
21988;BME280;11158;53.404;-1.510;2023-09-19T05:29:56;98853.41;;;15.28;62.10
21988;BME280;11158;53.404;-1.510;2023-09-19T05:32:40;98843.03;;;15.15;62.91
21988;BME280;11158;53.404;-1.510;2023-09-19T05:35:25;98824.94;;;15.10;63.05
21988;BME280;11158;53.404;-1.510;2023-09-19T05:38:10;98812.19;;;15.00;63.70
21988;BME280;11158;53.404;-1.510;2023-09-19T05:40:56;98806.25;;;15.25;63.51
21988;BME280;11158;53.404;-1.510;2023-09-19T05:43:40;98795.78;;;15.02;64.50
21988;BME280;11158;53.404;-1.510;2023-09-19T05:46:24;98785.53;;;14.99;64.51
21988;BME280;11158;53.404;-1.510;2023-09-19T05:49:14;98777.22;;;15.00;64.74
21988;BME280;11158;53.404;-1.510;2023-09-19T05:51:59;98764.53;;;14.96;65.39
21988;BME280;11158;53.404;-1.510;2023-09-19T05:54:45;98750.22;;;15.17;64.63
21988;BME280;11158;53.404;-1.510;2023-09-19T05:57:29;98749.09;;;15.13;64.74
21988;BME280;11158;53.404;-1.510;2023-09-19T06:00:14;98744.13;;;15.32;65.22
21988;BME280;11158;53.404;-1.510;2023-09-19T06:02:59;98734.84;;;15.45;64.82
21988;BME280;11158;53.404;-1.510;2023-09-19T06:05:43;98731.06;;;15.46;64.62
21988;BME280;11158;53.404;-1.510;2023-09-19T06:08:27;98738.13;;;15.20;66.05
21988;BME280;11158;53.404;-1.510;2023-09-19T06:11:12;98743.34;;;15.32;65.92
21988;BME280;11158;53.404;-1.510;2023-09-19T06:13:56;98736.97;;;15.43;65.98
21988;BME280;11158;53.404;-1.510;2023-09-19T06:16:40;98735.38;;;15.15;66.80
21988;BME280;11158;53.404;-1.510;2023-09-19T06:19:26;98725.75;;;15.51;66.42
21988;BME280;11158;53.404;-1.510;2023-09-19T06:22:10;98724.28;;;15.70;65.71
21988;BME280;11158;53.404;-1.510;2023-09-19T06:24:55;98712.75;;;16.18;64.32
21988;BME280;11158;53.404;-1.510;2023-09-19T06:27:40;98708.41;;;16.17;64.35
21988;BME280;11158;53.404;-1.510;2023-09-19T06:30:26;98707.81;;;15.67;66.06
21988;BME280;11158;53.404;-1.510;2023-09-19T06:33:10;98686.44;;;15.55;66.82
21988;BME280;11158;53.404;-1.510;2023-09-19T06:35:56;98687.84;;;16.00;65.95
21988;BME280;11158;53.404;-1.510;2023-09-19T06:38:44;98693.47;;;15.94;65.78
21988;BME280;11158;53.404;-1.510;2023-09-19T06:41:29;98683.25;;;16.01;66.19
21988;BME280;11158;53.404;-1.510;2023-09-19T06:44:14;98671.31;;;16.44;64.54
21988;BME280;11158;53.404;-1.510;2023-09-19T06:46:58;98655.28;;;16.07;65.63
21988;BME280;11158;53.404;-1.510;2023-09-19T06:49:42;98643.41;;;16.08;65.71
21988;BME280;11158;53.404;-1.510;2023-09-19T06:52:28;98646.53;;;15.84;67.22
21988;BME280;11158;53.404;-1.510;2023-09-19T06:55:12;98635.94;;;16.25;66.16
21988;BME280;11158;53.404;-1.510;2023-09-19T06:57:57;98629.69;;;16.15;66.60
21988;BME280;11158;53.404;-1.510;2023-09-19T07:00:42;98627.78;;;16.10;66.28
21988;BME280;11158;53.404;-1.510;2023-09-19T07:03:26;98605.53;;;16.45;65.30
21988;BME280;11158;53.404;-1.510;2023-09-19T07:06:12;98610.34;;;16.33;66.40
21988;BME280;11158;53.404;-1.510;2023-09-19T07:08:56;98589.38;;;16.55;65.71
21988;BME280;11158;53.404;-1.510;2023-09-19T07:11:41;98592.06;;;16.40;66.07
21988;BME280;11158;53.404;-1.510;2023-09-19T07:14:25;98582.38;;;16.60;65.96
21988;BME280;11158;53.404;-1.510;2023-09-19T07:17:09;98565.59;;;16.42;66.45
21988;BME280;11158;53.404;-1.510;2023-09-19T07:19:54;98559.72;;;16.76;65.20
21988;BME280;11158;53.404;-1.510;2023-09-19T07:22:38;98555.63;;;16.27;67.56
21988;BME280;11158;53.404;-1.510;2023-09-19T07:25:23;98557.53;;;16.37;67.41
21988;BME280;11158;53.404;-1.510;2023-09-19T07:28:07;98545.44;;;16.75;66.39
21988;BME280;11158;53.404;-1.510;2023-09-19T07:30:51;98539.94;;;16.09;68.39
21988;BME280;11158;53.404;-1.510;2023-09-19T07:33:36;98546.19;;;16.35;67.37
21988;BME280;11158;53.404;-1.510;2023-09-19T07:36:20;98535.97;;;16.47;67.28
21988;BME280;11158;53.404;-1.510;2023-09-19T07:39:04;98533.03;;;16.74;66.58
21988;BME280;11158;53.404;-1.510;2023-09-19T07:41:50;98534.91;;;16.64;66.29
21988;BME280;11158;53.404;-1.510;2023-09-19T07:44:37;98538.69;;;16.47;67.72
21988;BME280;11158;53.404;-1.510;2023-09-19T07:47:22;98520.88;;;16.77;67.16
21988;BME280;11158;53.404;-1.510;2023-09-19T07:50:06;98501.31;;;17.52;65.54
21988;BME280;11158;53.404;-1.510;2023-09-19T07:52:52;98505.78;;;16.96;66.83
21988;BME280;11158;53.404;-1.510;2023-09-19T07:55:36;98508.09;;;17.49;65.45
21988;BME280;11158;53.404;-1.510;2023-09-19T07:58:20;98465.25;;;17.17;65.81
21988;BME280;11158;53.404;-1.510;2023-09-19T08:01:08;98476.47;;;17.50;65.72
21988;BME280;11158;53.404;-1.510;2023-09-19T08:03:53;98473.34;;;17.17;66.46
21988;BME280;11158;53.404;-1.510;2023-09-19T08:06:37;98449.81;;;17.33;66.20
21988;BME280;11158;53.404;-1.510;2023-09-19T08:09:23;98452.63;;;16.66;68.11
21988;BME280;11158;53.404;-1.510;2023-09-19T08:12:07;98459.41;;;16.84;68.66
21988;BME280;11158;53.404;-1.510;2023-09-19T08:14:54;98448.00;;;17.08;67.29
21988;BME280;11158;53.404;-1.510;2023-09-19T08:17:39;98459.53;;;17.29;66.70
21988;BME280;11158;53.404;-1.510;2023-09-19T08:20:23;98446.41;;;16.76;68.11
21988;BME280;11158;53.404;-1.510;2023-09-19T08:23:07;98463.72;;;16.80;67.25
21988;BME280;11158;53.404;-1.510;2023-09-19T08:25:56;98454.78;;;16.95;66.37
21988;BME280;11158;53.404;-1.510;2023-09-19T08:28:41;98460.31;;;17.40;66.06
21988;BME280;11158;53.404;-1.510;2023-09-19T08:31:25;98455.56;;;17.76;65.11
21988;BME280;11158;53.404;-1.510;2023-09-19T08:34:10;98449.41;;;17.65;65.20
21988;BME280;11158;53.404;-1.510;2023-09-19T08:36:55;98464.97;;;17.94;64.61
21988;BME280;11158;53.404;-1.510;2023-09-19T08:39:43;98463.94;;;17.74;65.01
21988;BME280;11158;53.404;-1.510;2023-09-19T08:42:28;98481.38;;;18.03;65.20
21988;BME280;11158;53.404;-1.510;2023-09-19T08:45:13;98468.88;;;17.62;65.97
21988;BME280;11158;53.404;-1.510;2023-09-19T08:48:22;98480.94;;;17.85;66.43
21988;BME280;11158;53.404;-1.510;2023-09-19T08:51:08;98480.91;;;17.15;68.74
21988;BME280;11158;53.404;-1.510;2023-09-19T08:54:03;98483.38;;;17.01;69.59
21988;BME280;11158;53.404;-1.510;2023-09-19T08:56:50;98485.63;;;17.59;67.05
21988;BME280;11158;53.404;-1.510;2023-09-19T08:59:38;98482.47;;;17.42;68.05
21988;BME280;11158;53.404;-1.510;2023-09-19T09:02:24;98494.41;;;17.15;68.24
21988;BME280;11158;53.404;-1.510;2023-09-19T09:05:09;98494.03;;;17.57;67.52
21988;BME280;11158;53.404;-1.510;2023-09-19T09:07:57;98489.00;;;17.20;68.58
21988;BME280;11158;53.404;-1.510;2023-09-19T09:10:44;98489.28;;;17.89;66.75
21988;BME280;11158;53.404;-1.510;2023-09-19T09:13:31;98479.97;;;17.55;67.22
21988;BME280;11158;53.404;-1.510;2023-09-19T09:16:16;98489.34;;;17.73;67.58
21988;BME280;11158;53.404;-1.510;2023-09-19T09:19:04;98482.28;;;17.88;66.65
21988;BME280;11158;53.404;-1.510;2023-09-19T09:21:49;98492.84;;;18.29;65.25
21988;BME280;11158;53.404;-1.510;2023-09-19T09:24:33;98480.66;;;18.66;63.70
21988;BME280;11158;53.404;-1.510;2023-09-19T09:27:17;98478.00;;;18.60;64.24
21988;BME280;11158;53.404;-1.510;2023-09-19T09:30:02;98469.47;;;19.07;63.01
21988;BME280;11158;53.404;-1.510;2023-09-19T09:32:48;98476.69;;;19.40;62.19
21988;BME280;11158;53.404;-1.510;2023-09-19T09:35:57;98470.44;;;19.64;61.02
21988;BME280;11158;53.404;-1.510;2023-09-19T09:38:45;98470.63;;;19.49;61.92
21988;BME280;11158;53.404;-1.510;2023-09-19T09:41:36;98471.19;;;18.97;63.21
21988;BME280;11158;53.404;-1.510;2023-09-19T09:44:23;98473.69;;;19.66;61.40
21988;BME280;11158;53.404;-1.510;2023-09-19T09:47:07;98461.56;;;19.82;61.39
21988;BME280;11158;53.404;-1.510;2023-09-19T09:50:10;98462.81;;;19.23;62.74
21988;BME280;11158;53.404;-1.510;2023-09-19T09:53:01;98456.66;;;19.60;62.28
21988;BME280;11158;53.404;-1.510;2023-09-19T09:56:07;98454.16;;;19.69;62.51
21988;BME280;11158;53.404;-1.510;2023-09-19T09:58:53;98452.41;;;20.16;61.41
21988;BME280;11158;53.404;-1.510;2023-09-19T10:01:48;98453.66;;;19.86;61.90
21988;BME280;11158;53.404;-1.510;2023-09-19T10:04:33;98452.94;;;20.51;60.50
21988;BME280;11158;53.404;-1.510;2023-09-19T10:07:30;98434.97;;;19.84;62.30
21988;BME280;11158;53.404;-1.510;2023-09-19T10:10:38;98440.22;;;20.33;61.99
21988;BME280;11158;53.404;-1.510;2023-09-19T10:13:29;98441.81;;;20.99;59.45
21988;BME280;11158;53.404;-1.510;2023-09-19T10:16:16;98447.72;;;20.74;60.61
21988;BME280;11158;53.404;-1.510;2023-09-19T10:19:07;98453.50;;;21.41;59.10
21988;BME280;11158;53.404;-1.510;2023-09-19T10:21:54;98448.84;;;21.28;59.19
21988;BME280;11158;53.404;-1.510;2023-09-19T10:24:40;98456.31;;;21.36;59.33
21988;BME280;11158;53.404;-1.510;2023-09-19T10:27:29;98451.91;;;22.04;57.49
21988;BME280;11158;53.404;-1.510;2023-09-19T10:30:14;98453.72;;;21.59;58.12
21988;BME280;11158;53.404;-1.510;2023-09-19T10:33:03;98452.16;;;22.16;57.28
21988;BME280;11158;53.404;-1.510;2023-09-19T10:35:49;98427.91;;;21.70;57.22
21988;BME280;11158;53.404;-1.510;2023-09-19T10:38:38;98441.47;;;22.20;56.51
21988;BME280;11158;53.404;-1.510;2023-09-19T10:41:25;98448.84;;;21.28;58.79
21988;BME280;11158;53.404;-1.510;2023-09-19T10:44:09;98439.38;;;20.98;60.45
21988;BME280;11158;53.404;-1.510;2023-09-19T10:46:54;98455.91;;;21.29;59.53
21988;BME280;11158;53.404;-1.510;2023-09-19T10:49:45;98458.88;;;22.55;56.79
21988;BME280;11158;53.404;-1.510;2023-09-19T10:52:33;98450.47;;;21.29;60.11
21988;BME280;11158;53.404;-1.510;2023-09-19T10:55:19;98455.69;;;21.39;60.57
21988;BME280;11158;53.404;-1.510;2023-09-19T10:58:06;98468.59;;;21.75;60.33
21988;BME280;11158;53.404;-1.510;2023-09-19T11:00:59;98471.50;;;22.15;59.11
21988;BME280;11158;53.404;-1.510;2023-09-19T11:04:29;98463.69;;;22.58;56.92
21988;BME280;11158;53.404;-1.510;2023-09-19T11:07:15;98463.09;;;22.39;58.25
21988;BME280;11158;53.404;-1.510;2023-09-19T11:09:59;98467.69;;;21.66;59.57
21988;BME280;11158;53.404;-1.510;2023-09-19T11:12:48;98468.69;;;22.65;56.49
21988;BME280;11158;53.404;-1.510;2023-09-19T11:24:27;98464.16;;;21.79;58.74
21988;BME280;11158;53.404;-1.510;2023-09-19T11:27:15;98469.69;;;22.10;59.03
21988;BME280;11158;53.404;-1.510;2023-09-19T11:30:27;98479.28;;;21.58;59.87
21988;BME280;11158;53.404;-1.510;2023-09-19T11:33:32;98475.81;;;21.93;59.69
21988;BME280;11158;53.404;-1.510;2023-09-19T11:36:34;98487.06;;;22.01;59.07
21988;BME280;11158;53.404;-1.510;2023-09-19T11:39:26;98479.97;;;22.27;59.46
21988;BME280;11158;53.404;-1.510;2023-09-19T11:42:46;98496.41;;;22.45;58.56
21988;BME280;11158;53.404;-1.510;2023-09-19T11:48:31;98480.25;;;21.75;60.11
21988;BME280;11158;53.404;-1.510;2023-09-19T11:51:22;98480.03;;;22.00;59.94
21988;BME280;11158;53.404;-1.510;2023-09-19T11:54:10;98507.06;;;22.32;59.46
21988;BME280;11158;53.404;-1.510;2023-09-19T11:57:09;98517.91;;;22.69;58.60
21988;BME280;11158;53.404;-1.510;2023-09-19T11:59:53;98515.38;;;22.50;58.87
21988;BME280;11158;53.404;-1.510;2023-09-19T12:02:39;98513.94;;;22.30;59.56
21988;BME280;11158;53.404;-1.510;2023-09-19T12:05:30;98529.13;;;22.17;59.61
21988;BME280;11158;53.404;-1.510;2023-09-19T12:08:17;98525.97;;;21.87;60.62
21988;BME280;11158;53.404;-1.510;2023-09-19T12:11:05;98533.19;;;22.20;59.44
21988;BME280;11158;53.404;-1.510;2023-09-19T12:13:52;98534.31;;;22.05;60.11
21988;BME280;11158;53.404;-1.510;2023-09-19T12:16:37;98522.97;;;21.61;60.80
21988;BME280;11158;53.404;-1.510;2023-09-19T12:19:22;98538.84;;;21.95;60.43
21988;BME280;11158;53.404;-1.510;2023-09-19T12:22:07;98521.38;;;21.60;60.85
21988;BME280;11158;53.404;-1.510;2023-09-19T12:24:53;98528.88;;;21.22;62.36
21988;BME280;11158;53.404;-1.510;2023-09-19T12:27:45;98525.81;;;20.77;63.71
21988;BME280;11158;53.404;-1.510;2023-09-19T12:30:40;98520.72;;;22.05;60.55
21988;BME280;11158;53.404;-1.510;2023-09-19T12:33:25;98531.63;;;21.91;61.25
21988;BME280;11158;53.404;-1.510;2023-09-19T12:36:23;98532.97;;;22.16;60.20
21988;BME280;11158;53.404;-1.510;2023-09-19T12:39:24;98536.81;;;22.29;59.69
21988;BME280;11158;53.404;-1.510;2023-09-19T12:42:10;98541.47;;;22.51;59.69
21988;BME280;11158;53.404;-1.510;2023-09-19T12:44:58;98543.56;;;22.17;59.70
21988;BME280;11158;53.404;-1.510;2023-09-19T12:48:25;98553.09;;;23.33;57.20
21988;BME280;11158;53.404;-1.510;2023-09-19T12:51:15;98554.63;;;23.16;56.55
21988;BME280;11158;53.404;-1.510;2023-09-19T12:54:37;98560.66;;;22.46;58.28
21988;BME280;11158;53.404;-1.510;2023-09-19T12:57:25;98547.41;;;22.03;58.78
21988;BME280;11158;53.404;-1.510;2023-09-19T13:00:10;98540.38;;;22.02;59.35
21988;BME280;11158;53.404;-1.510;2023-09-19T13:03:19;98537.75;;;22.69;57.94
21988;BME280;11158;53.404;-1.510;2023-09-19T13:06:09;98540.63;;;22.14;58.37
21988;BME280;11158;53.404;-1.510;2023-09-19T13:09:07;98529.94;;;23.21;56.35
21988;BME280;11158;53.404;-1.510;2023-09-19T13:11:53;98535.97;;;22.87;57.06
21988;BME280;11158;53.404;-1.510;2023-09-19T13:14:37;98539.19;;;22.44;58.17
21988;BME280;11158;53.404;-1.510;2023-09-19T13:17:24;98530.16;;;22.21;59.08
21988;BME280;11158;53.404;-1.510;2023-09-19T13:20:24;98535.78;;;22.84;57.68
21988;BME280;11158;53.404;-1.510;2023-09-19T13:23:26;98530.28;;;23.60;55.22
21988;BME280;11158;53.404;-1.510;2023-09-19T13:26:11;98531.88;;;23.21;55.74
21988;BME280;11158;53.404;-1.510;2023-09-19T13:28:56;98542.00;;;22.75;57.48
21988;BME280;11158;53.404;-1.510;2023-09-19T13:31:52;98556.34;;;22.31;57.41
21988;BME280;11158;53.404;-1.510;2023-09-19T13:34:37;98546.19;;;22.09;58.02
21988;BME280;11158;53.404;-1.510;2023-09-19T13:37:22;98532.94;;;21.66;59.03
21988;BME280;11158;53.404;-1.510;2023-09-19T13:40:12;98549.97;;;22.35;58.23
21988;BME280;11158;53.404;-1.510;2023-09-19T13:42:57;98549.75;;;22.46;57.46
21988;BME280;11158;53.404;-1.510;2023-09-19T13:45:42;98538.38;;;22.44;57.63
21988;BME280;11158;53.404;-1.510;2023-09-19T13:48:26;98544.34;;;22.68;56.02
21988;BME280;11158;53.404;-1.510;2023-09-19T13:51:11;98534.47;;;22.81;55.36
21988;BME280;11158;53.404;-1.510;2023-09-19T13:53:56;98549.06;;;22.99;54.54
21988;BME280;11158;53.404;-1.510;2023-09-19T13:56:40;98542.25;;;22.15;57.17
21988;BME280;11158;53.404;-1.510;2023-09-19T13:59:24;98526.16;;;22.77;55.97
21988;BME280;11158;53.404;-1.510;2023-09-19T14:04:52;98556.38;;;22.03;57.09
21988;BME280;11158;53.404;-1.510;2023-09-19T14:07:36;98505.53;;;21.62;58.02
21988;BME280;11158;53.404;-1.510;2023-09-19T14:10:21;98563.59;;;22.35;56.09
21988;BME280;11158;53.404;-1.510;2023-09-19T14:13:05;98576.28;;;22.40;55.64
21988;BME280;11158;53.404;-1.510;2023-09-19T14:15:49;98569.03;;;22.35;55.96
21988;BME280;11158;53.404;-1.510;2023-09-19T14:18:34;98577.56;;;23.24;53.84
21988;BME280;11158;53.404;-1.510;2023-09-19T14:21:18;98566.69;;;21.92;57.44
21988;BME280;11158;53.404;-1.510;2023-09-19T14:24:02;98591.00;;;22.39;56.52
21988;BME280;11158;53.404;-1.510;2023-09-19T14:26:47;98584.06;;;23.37;54.69
21988;BME280;11158;53.404;-1.510;2023-09-19T14:29:32;98584.50;;;23.30;54.38
21988;BME280;11158;53.404;-1.510;2023-09-19T14:32:16;98595.28;;;22.54;55.72
21988;BME280;11158;53.404;-1.510;2023-09-19T14:35:00;98595.47;;;22.21;56.92
21988;BME280;11158;53.404;-1.510;2023-09-19T14:37:45;98586.50;;;23.47;53.50
21988;BME280;11158;53.404;-1.510;2023-09-19T14:40:29;98589.34;;;22.66;55.39
21988;BME280;11158;53.404;-1.510;2023-09-19T14:43:15;98603.47;;;23.13;53.87
21988;BME280;11158;53.404;-1.510;2023-09-19T14:46:06;98600.69;;;23.04;53.56
21988;BME280;11158;53.404;-1.510;2023-09-19T14:48:56;98605.47;;;22.62;55.47
21988;BME280;11158;53.404;-1.510;2023-09-19T14:51:46;98613.00;;;22.43;55.47
21988;BME280;11158;53.404;-1.510;2023-09-19T14:54:33;98604.72;;;22.20;55.34
21988;BME280;11158;53.404;-1.510;2023-09-19T14:57:17;98613.75;;;22.57;54.78
21988;BME280;11158;53.404;-1.510;2023-09-19T15:00:01;98616.03;;;21.72;56.84
21988;BME280;11158;53.404;-1.510;2023-09-19T15:02:49;98628.78;;;21.71;57.34